sensor_id;sensor_type;location;lat;lon;timestamp;P1;durP1;ratioP1;P2;durP2;ratioP2
41799;SDS011;27468;47.460;19.034;2023-05-16T00:01:10;1.92;;;1.60;;
41799;SDS011;27468;47.460;19.034;2023-05-16T00:03:36;2.00;;;1.38;;
41799;SDS011;27468;47.460;19.034;2023-05-16T00:06:02;2.08;;;1.30;;
41799;SDS011;27468;47.460;19.034;2023-05-16T00:08:29;1.83;;;1.40;;
41799;SDS011;27468;47.460;19.034;2023-05-16T00:10:54;1.65;;;1.52;;
41799;SDS011;27468;47.460;19.034;2023-05-16T00:13:20;2.17;;;1.50;;
41799;SDS011;27468;47.460;19.034;2023-05-16T00:15:49;1.38;;;1.13;;
41799;SDS011;27468;47.460;19.034;2023-05-16T00:18:16;2.33;;;1.40;;
41799;SDS011;27468;47.460;19.034;2023-05-16T00:20:42;2.00;;;1.25;;
41799;SDS011;27468;47.460;19.034;2023-05-16T00:23:07;1.85;;;1.27;;
41799;SDS011;27468;47.460;19.034;2023-05-16T00:25:33;1.90;;;1.23;;
41799;SDS011;27468;47.460;19.034;2023-05-16T00:27:58;1.17;;;1.00;;
41799;SDS011;27468;47.460;19.034;2023-05-16T00:30:24;2.70;;;1.40;;
41799;SDS011;27468;47.460;19.034;2023-05-16T00:32:49;2.05;;;1.85;;
41799;SDS011;27468;47.460;19.034;2023-05-16T00:35:14;1.45;;;1.25;;
41799;SDS011;27468;47.460;19.034;2023-05-16T00:37:40;1.70;;;1.30;;
41799;SDS011;27468;47.460;19.034;2023-05-16T00:40:05;1.40;;;1.30;;
41799;SDS011;27468;47.460;19.034;2023-05-16T00:42:31;1.30;;;1.20;;
41799;SDS011;27468;47.460;19.034;2023-05-16T00:44:57;1.85;;;1.25;;
41799;SDS011;27468;47.460;19.034;2023-05-16T00:47:22;1.70;;;1.60;;
41799;SDS011;27468;47.460;19.034;2023-05-16T00:49:47;1.65;;;1.38;;
41799;SDS011;27468;47.460;19.034;2023-05-16T00:52:13;1.58;;;1.48;;
41799;SDS011;27468;47.460;19.034;2023-05-16T00:54:39;1.30;;;1.20;;
41799;SDS011;27468;47.460;19.034;2023-05-16T00:57:05;1.45;;;1.30;;
41799;SDS011;27468;47.460;19.034;2023-05-16T00:59:31;1.65;;;1.27;;
41799;SDS011;27468;47.460;19.034;2023-05-16T01:01:57;1.88;;;1.38;;
41799;SDS011;27468;47.460;19.034;2023-05-16T01:04:23;1.52;;;1.23;;
41799;SDS011;27468;47.460;19.034;2023-05-16T01:06:49;1.80;;;1.50;;
41799;SDS011;27468;47.460;19.034;2023-05-16T01:09:15;1.80;;;1.48;;
41799;SDS011;27468;47.460;19.034;2023-05-16T01:11:51;1.40;;;1.25;;
41799;SDS011;27468;47.460;19.034;2023-05-16T01:14:32;2.08;;;1.50;;
41799;SDS011;27468;47.460;19.034;2023-05-16T01:28:12;2.10;;;1.50;;
41799;SDS011;27468;47.460;19.034;2023-05-16T01:30:40;1.63;;;1.30;;
41799;SDS011;27468;47.460;19.034;2023-05-16T01:33:06;1.75;;;1.20;;
41799;SDS011;27468;47.460;19.034;2023-05-16T01:35:32;1.65;;;1.30;;
41799;SDS011;27468;47.460;19.034;2023-05-16T01:38:09;1.77;;;1.40;;
41799;SDS011;27468;47.460;19.034;2023-05-16T01:40:58;2.28;;;1.67;;
41799;SDS011;27468;47.460;19.034;2023-05-16T01:43:29;1.23;;;1.13;;
41799;SDS011;27468;47.460;19.034;2023-05-16T01:46:03;1.45;;;1.35;;
41799;SDS011;27468;47.460;19.034;2023-05-16T01:48:36;1.60;;;1.33;;
41799;SDS011;27468;47.460;19.034;2023-05-16T01:51:17;1.50;;;1.30;;
41799;SDS011;27468;47.460;19.034;2023-05-16T01:53:45;1.65;;;1.17;;
41799;SDS011;27468;47.460;19.034;2023-05-16T01:56:14;2.15;;;1.30;;
41799;SDS011;27468;47.460;19.034;2023-05-16T01:58:41;1.77;;;1.08;;
41799;SDS011;27468;47.460;19.034;2023-05-16T02:01:06;2.47;;;1.42;;
41799;SDS011;27468;47.460;19.034;2023-05-16T02:03:32;1.70;;;1.48;;
41799;SDS011;27468;47.460;19.034;2023-05-16T02:05:59;1.38;;;1.20;;
41799;SDS011;27468;47.460;19.034;2023-05-16T02:08:25;1.55;;;1.38;;
41799;SDS011;27468;47.460;19.034;2023-05-16T02:10:51;1.65;;;1.48;;
41799;SDS011;27468;47.460;19.034;2023-05-16T02:13:17;2.05;;;1.45;;
41799;SDS011;27468;47.460;19.034;2023-05-16T02:15:43;1.90;;;1.50;;
41799;SDS011;27468;47.460;19.034;2023-05-16T02:18:08;2.67;;;1.58;;
41799;SDS011;27468;47.460;19.034;2023-05-16T02:20:34;1.83;;;1.67;;
41799;SDS011;27468;47.460;19.034;2023-05-16T02:23:00;2.45;;;1.52;;
41799;SDS011;27468;47.460;19.034;2023-05-16T02:25:27;1.70;;;1.42;;
41799;SDS011;27468;47.460;19.034;2023-05-16T02:27:52;2.45;;;1.70;;
41799;SDS011;27468;47.460;19.034;2023-05-16T02:30:18;1.77;;;1.50;;
41799;SDS011;27468;47.460;19.034;2023-05-16T02:32:43;1.90;;;1.80;;
41799;SDS011;27468;47.460;19.034;2023-05-16T02:35:09;2.65;;;1.63;;
41799;SDS011;27468;47.460;19.034;2023-05-16T02:37:35;1.95;;;1.55;;
41799;SDS011;27468;47.460;19.034;2023-05-16T02:40:01;2.40;;;1.63;;
41799;SDS011;27468;47.460;19.034;2023-05-16T02:42:29;2.05;;;1.70;;
41799;SDS011;27468;47.460;19.034;2023-05-16T02:44:55;2.72;;;2.13;;
41799;SDS011;27468;47.460;19.034;2023-05-16T02:47:21;3.05;;;1.85;;
41799;SDS011;27468;47.460;19.034;2023-05-16T02:49:47;1.90;;;1.73;;
41799;SDS011;27468;47.460;19.034;2023-05-16T02:52:12;2.53;;;2.08;;
41799;SDS011;27468;47.460;19.034;2023-05-16T02:54:37;2.53;;;2.00;;
41799;SDS011;27468;47.460;19.034;2023-05-16T02:57:03;2.20;;;1.80;;
41799;SDS011;27468;47.460;19.034;2023-05-16T02:59:28;2.58;;;2.10;;
41799;SDS011;27468;47.460;19.034;2023-05-16T03:01:54;2.33;;;1.80;;
41799;SDS011;27468;47.460;19.034;2023-05-16T03:04:19;2.40;;;2.00;;
41799;SDS011;27468;47.460;19.034;2023-05-16T03:06:45;2.28;;;1.58;;
41799;SDS011;27468;47.460;19.034;2023-05-16T03:09:10;2.35;;;1.90;;
41799;SDS011;27468;47.460;19.034;2023-05-16T03:11:36;3.35;;;1.73;;
41799;SDS011;27468;47.460;19.034;2023-05-16T03:14:01;6.10;;;2.38;;
41799;SDS011;27468;47.460;19.034;2023-05-16T03:16:27;2.45;;;1.70;;
41799;SDS011;27468;47.460;19.034;2023-05-16T03:18:52;4.07;;;1.95;;
41799;SDS011;27468;47.460;19.034;2023-05-16T03:21:18;2.10;;;1.90;;
41799;SDS011;27468;47.460;19.034;2023-05-16T03:23:43;3.22;;;1.80;;
41799;SDS011;27468;47.460;19.034;2023-05-16T03:26:08;2.15;;;1.88;;
41799;SDS011;27468;47.460;19.034;2023-05-16T03:28:34;2.03;;;1.80;;
41799;SDS011;27468;47.460;19.034;2023-05-16T03:31:00;3.25;;;1.75;;
41799;SDS011;27468;47.460;19.034;2023-05-16T03:33:25;2.58;;;1.88;;
41799;SDS011;27468;47.460;19.034;2023-05-16T03:35:50;1.88;;;1.70;;
41799;SDS011;27468;47.460;19.034;2023-05-16T03:38:16;2.08;;;1.88;;
41799;SDS011;27468;47.460;19.034;2023-05-16T03:40:42;1.80;;;1.65;;
41799;SDS011;27468;47.460;19.034;2023-05-16T03:43:08;1.70;;;1.60;;
41799;SDS011;27468;47.460;19.034;2023-05-16T03:45:33;2.22;;;2.03;;
41799;SDS011;27468;47.460;19.034;2023-05-16T03:47:58;1.95;;;1.65;;
41799;SDS011;27468;47.460;19.034;2023-05-16T03:50:24;1.60;;;1.45;;
41799;SDS011;27468;47.460;19.034;2023-05-16T03:52:50;3.42;;;1.83;;
41799;SDS011;27468;47.460;19.034;2023-05-16T03:55:18;2.28;;;1.50;;
41799;SDS011;27468;47.460;19.034;2023-05-16T03:57:44;1.58;;;1.48;;
41799;SDS011;27468;47.460;19.034;2023-05-16T04:00:09;2.05;;;1.85;;
41799;SDS011;27468;47.460;19.034;2023-05-16T04:02:36;2.00;;;1.60;;
41799;SDS011;27468;47.460;19.034;2023-05-16T04:05:04;2.58;;;1.50;;
41799;SDS011;27468;47.460;19.034;2023-05-16T04:07:34;2.05;;;1.60;;
41799;SDS011;27468;47.460;19.034;2023-05-16T04:10:00;1.52;;;1.42;;
41799;SDS011;27468;47.460;19.034;2023-05-16T04:12:25;2.03;;;1.80;;
41799;SDS011;27468;47.460;19.034;2023-05-16T04:14:51;1.45;;;1.33;;
41799;SDS011;27468;47.460;19.034;2023-05-16T04:17:16;1.33;;;1.23;;
41799;SDS011;27468;47.460;19.034;2023-05-16T04:19:41;1.42;;;1.33;;
41799;SDS011;27468;47.460;19.034;2023-05-16T04:22:07;1.75;;;1.50;;
41799;SDS011;27468;47.460;19.034;2023-05-16T04:24:32;1.70;;;1.50;;
41799;SDS011;27468;47.460;19.034;2023-05-16T04:26:58;1.75;;;1.40;;
41799;SDS011;27468;47.460;19.034;2023-05-16T04:29:23;1.75;;;1.50;;
41799;SDS011;27468;47.460;19.034;2023-05-16T04:31:49;1.58;;;1.40;;
41799;SDS011;27468;47.460;19.034;2023-05-16T04:34:14;2.85;;;1.30;;
41799;SDS011;27468;47.460;19.034;2023-05-16T04:36:40;2.20;;;1.35;;
41799;SDS011;27468;47.460;19.034;2023-05-16T04:39:05;3.25;;;1.70;;
41799;SDS011;27468;47.460;19.034;2023-05-16T04:41:31;1.25;;;1.15;;
41799;SDS011;27468;47.460;19.034;2023-05-16T04:43:57;2.67;;;1.40;;
41799;SDS011;27468;47.460;19.034;2023-05-16T04:46:23;1.80;;;1.33;;
41799;SDS011;27468;47.460;19.034;2023-05-16T04:48:48;2.63;;;1.60;;
41799;SDS011;27468;47.460;19.034;2023-05-16T04:51:14;1.60;;;1.40;;
41799;SDS011;27468;47.460;19.034;2023-05-16T04:53:39;2.67;;;1.20;;
41799;SDS011;27468;47.460;19.034;2023-05-16T04:56:05;1.75;;;1.17;;
41799;SDS011;27468;47.460;19.034;2023-05-16T04:58:30;2.22;;;1.27;;
41799;SDS011;27468;47.460;19.034;2023-05-16T05:00:56;1.95;;;1.42;;
41799;SDS011;27468;47.460;19.034;2023-05-16T05:03:22;2.05;;;1.38;;
41799;SDS011;27468;47.460;19.034;2023-05-16T05:05:47;1.33;;;0.90;;
41799;SDS011;27468;47.460;19.034;2023-05-16T05:08:13;1.65;;;1.15;;
41799;SDS011;27468;47.460;19.034;2023-05-16T05:10:39;1.95;;;1.20;;
41799;SDS011;27468;47.460;19.034;2023-05-16T05:13:05;1.80;;;1.10;;
41799;SDS011;27468;47.460;19.034;2023-05-16T05:15:30;1.52;;;0.90;;
41799;SDS011;27468;47.460;19.034;2023-05-16T05:17:55;1.52;;;1.30;;
41799;SDS011;27468;47.460;19.034;2023-05-16T05:20:21;1.10;;;0.93;;
41799;SDS011;27468;47.460;19.034;2023-05-16T05:22:47;1.63;;;1.20;;
41799;SDS011;27468;47.460;19.034;2023-05-16T05:25:12;1.30;;;1.10;;
41799;SDS011;27468;47.460;19.034;2023-05-16T05:27:38;1.10;;;1.00;;
41799;SDS011;27468;47.460;19.034;2023-05-16T05:30:04;1.33;;;1.23;;
41799;SDS011;27468;47.460;19.034;2023-05-16T05:32:30;1.58;;;1.15;;
41799;SDS011;27468;47.460;19.034;2023-05-16T05:34:56;2.08;;;1.33;;
41799;SDS011;27468;47.460;19.034;2023-05-16T05:37:22;1.73;;;1.30;;
41799;SDS011;27468;47.460;19.034;2023-05-16T05:39:47;1.13;;;1.00;;
41799;SDS011;27468;47.460;19.034;2023-05-16T05:42:13;1.98;;;1.52;;
41799;SDS011;27468;47.460;19.034;2023-05-16T05:44:38;1.73;;;1.40;;
41799;SDS011;27468;47.460;19.034;2023-05-16T05:47:04;2.42;;;1.30;;
41799;SDS011;27468;47.460;19.034;2023-05-16T05:49:30;1.58;;;1.30;;
41799;SDS011;27468;47.460;19.034;2023-05-16T05:51:56;1.58;;;1.45;;
41799;SDS011;27468;47.460;19.034;2023-05-16T05:54:22;3.60;;;1.50;;
41799;SDS011;27468;47.460;19.034;2023-05-16T05:56:48;1.52;;;1.15;;
41799;SDS011;27468;47.460;19.034;2023-05-16T05:59:13;1.35;;;1.20;;
41799;SDS011;27468;47.460;19.034;2023-05-16T06:01:39;1.25;;;1.02;;
41799;SDS011;27468;47.460;19.034;2023-05-16T06:04:05;1.15;;;1.05;;
41799;SDS011;27468;47.460;19.034;2023-05-16T06:06:30;1.85;;;1.42;;
41799;SDS011;27468;47.460;19.034;2023-05-16T06:08:56;1.75;;;1.38;;
41799;SDS011;27468;47.460;19.034;2023-05-16T06:11:22;1.48;;;1.13;;
41799;SDS011;27468;47.460;19.034;2023-05-16T06:13:49;1.63;;;1.45;;
41799;SDS011;27468;47.460;19.034;2023-05-16T06:16:15;1.42;;;1.20;;
41799;SDS011;27468;47.460;19.034;2023-05-16T06:18:40;1.20;;;1.10;;
41799;SDS011;27468;47.460;19.034;2023-05-16T06:21:06;1.98;;;1.38;;
41799;SDS011;27468;47.460;19.034;2023-05-16T06:23:31;1.25;;;0.88;;
41799;SDS011;27468;47.460;19.034;2023-05-16T06:25:57;1.98;;;1.38;;
41799;SDS011;27468;47.460;19.034;2023-05-16T06:28:22;2.65;;;1.20;;
41799;SDS011;27468;47.460;19.034;2023-05-16T06:30:48;1.52;;;1.13;;
41799;SDS011;27468;47.460;19.034;2023-05-16T06:33:15;1.48;;;1.30;;
41799;SDS011;27468;47.460;19.034;2023-05-16T06:35:41;1.67;;;1.10;;
41799;SDS011;27468;47.460;19.034;2023-05-16T06:38:06;1.63;;;1.10;;
41799;SDS011;27468;47.460;19.034;2023-05-16T06:40:32;1.25;;;1.15;;
41799;SDS011;27468;47.460;19.034;2023-05-16T06:42:57;1.98;;;1.08;;
41799;SDS011;27468;47.460;19.034;2023-05-16T06:45:23;1.70;;;1.40;;
41799;SDS011;27468;47.460;19.034;2023-05-16T06:47:48;1.83;;;1.20;;
41799;SDS011;27468;47.460;19.034;2023-05-16T06:50:13;1.45;;;1.35;;
41799;SDS011;27468;47.460;19.034;2023-05-16T06:52:39;1.92;;;1.50;;
41799;SDS011;27468;47.460;19.034;2023-05-16T06:55:05;1.30;;;1.20;;
41799;SDS011;27468;47.460;19.034;2023-05-16T06:57:31;1.83;;;1.13;;
41799;SDS011;27468;47.460;19.034;2023-05-16T06:59:57;1.95;;;1.38;;
41799;SDS011;27468;47.460;19.034;2023-05-16T07:02:22;1.63;;;1.20;;
41799;SDS011;27468;47.460;19.034;2023-05-16T07:04:47;2.17;;;1.80;;
41799;SDS011;27468;47.460;19.034;2023-05-16T07:07:13;2.50;;;1.50;;
41799;SDS011;27468;47.460;19.034;2023-05-16T07:09:39;2.35;;;1.67;;
41799;SDS011;27468;47.460;19.034;2023-05-16T07:12:04;3.03;;;1.98;;
41799;SDS011;27468;47.460;19.034;2023-05-16T07:14:30;2.70;;;1.73;;
41799;SDS011;27468;47.460;19.034;2023-05-16T07:16:55;2.88;;;1.70;;
41799;SDS011;27468;47.460;19.034;2023-05-16T07:19:21;2.60;;;2.08;;
41799;SDS011;27468;47.460;19.034;2023-05-16T07:21:46;2.88;;;1.73;;
41799;SDS011;27468;47.460;19.034;2023-05-16T07:24:12;3.55;;;1.92;;
41799;SDS011;27468;47.460;19.034;2023-05-16T07:26:37;2.92;;;1.85;;
41799;SDS011;27468;47.460;19.034;2023-05-16T07:29:02;4.15;;;2.05;;
41799;SDS011;27468;47.460;19.034;2023-05-16T07:31:28;3.08;;;2.17;;
41799;SDS011;27468;47.460;19.034;2023-05-16T07:33:55;2.85;;;2.08;;
41799;SDS011;27468;47.460;19.034;2023-05-16T07:36:21;3.03;;;2.10;;
41799;SDS011;27468;47.460;19.034;2023-05-16T07:38:46;3.65;;;2.50;;
41799;SDS011;27468;47.460;19.034;2023-05-16T07:41:12;4.65;;;2.65;;
41799;SDS011;27468;47.460;19.034;2023-05-16T07:43:37;5.65;;;2.60;;
41799;SDS011;27468;47.460;19.034;2023-05-16T07:46:03;3.95;;;2.70;;
41799;SDS011;27468;47.460;19.034;2023-05-16T07:48:29;3.88;;;2.72;;
41799;SDS011;27468;47.460;19.034;2023-05-16T07:50:55;4.15;;;2.65;;
41799;SDS011;27468;47.460;19.034;2023-05-16T07:53:21;3.50;;;2.58;;
41799;SDS011;27468;47.460;19.034;2023-05-16T07:55:46;4.15;;;2.83;;
41799;SDS011;27468;47.460;19.034;2023-05-16T07:58:13;4.63;;;3.08;;
41799;SDS011;27468;47.460;19.034;2023-05-16T08:00:38;5.18;;;2.53;;
41799;SDS011;27468;47.460;19.034;2023-05-16T08:03:04;4.93;;;2.95;;
41799;SDS011;27468;47.460;19.034;2023-05-16T08:05:30;4.28;;;2.75;;
41799;SDS011;27468;47.460;19.034;2023-05-16T08:07:55;5.05;;;3.03;;
41799;SDS011;27468;47.460;19.034;2023-05-16T08:10:21;5.45;;;2.80;;
41799;SDS011;27468;47.460;19.034;2023-05-16T08:12:47;3.75;;;2.65;;
41799;SDS011;27468;47.460;19.034;2023-05-16T08:15:13;4.72;;;2.53;;
41799;SDS011;27468;47.460;19.034;2023-05-16T08:17:39;5.97;;;2.95;;
41799;SDS011;27468;47.460;19.034;2023-05-16T08:20:04;5.55;;;2.85;;
41799;SDS011;27468;47.460;19.034;2023-05-16T08:22:30;4.82;;;2.83;;
41799;SDS011;27468;47.460;19.034;2023-05-16T08:24:57;4.43;;;2.58;;
41799;SDS011;27468;47.460;19.034;2023-05-16T08:27:24;4.85;;;2.97;;
41799;SDS011;27468;47.460;19.034;2023-05-16T08:29:50;11.45;;;3.40;;
41799;SDS011;27468;47.460;19.034;2023-05-16T08:32:16;4.82;;;2.80;;
41799;SDS011;27468;47.460;19.034;2023-05-16T08:34:41;4.93;;;3.15;;
41799;SDS011;27468;47.460;19.034;2023-05-16T08:37:06;5.13;;;3.00;;
41799;SDS011;27468;47.460;19.034;2023-05-16T08:39:32;5.22;;;2.88;;
41799;SDS011;27468;47.460;19.034;2023-05-16T08:41:57;5.75;;;3.10;;
41799;SDS011;27468;47.460;19.034;2023-05-16T08:44:24;6.35;;;3.38;;
41799;SDS011;27468;47.460;19.034;2023-05-16T08:46:51;7.40;;;3.33;;
41799;SDS011;27468;47.460;19.034;2023-05-16T08:49:18;4.63;;;2.97;;
41799;SDS011;27468;47.460;19.034;2023-05-16T08:51:47;5.65;;;3.42;;
41799;SDS011;27468;47.460;19.034;2023-05-16T08:54:15;6.15;;;2.95;;
41799;SDS011;27468;47.460;19.034;2023-05-16T08:56:41;4.80;;;3.10;;
41799;SDS011;27468;47.460;19.034;2023-05-16T08:59:08;5.10;;;3.03;;
41799;SDS011;27468;47.460;19.034;2023-05-16T09:01:34;4.97;;;3.05;;
41799;SDS011;27468;47.460;19.034;2023-05-16T09:03:59;7.18;;;3.25;;
41799;SDS011;27468;47.460;19.034;2023-05-16T09:06:25;6.00;;;2.92;;
41799;SDS011;27468;47.460;19.034;2023-05-16T09:08:52;6.55;;;2.78;;
41799;SDS011;27468;47.460;19.034;2023-05-16T09:11:18;4.63;;;2.70;;
41799;SDS011;27468;47.460;19.034;2023-05-16T09:13:44;6.43;;;3.40;;
41799;SDS011;27468;47.460;19.034;2023-05-16T09:16:10;5.53;;;3.40;;
41799;SDS011;27468;47.460;19.034;2023-05-16T09:18:46;4.88;;;3.47;;
41799;SDS011;27468;47.460;19.034;2023-05-16T09:23:52;4.78;;;2.58;;
41799;SDS011;27468;47.460;19.034;2023-05-16T09:26:18;4.50;;;2.63;;
41799;SDS011;27468;47.460;19.034;2023-05-16T09:28:46;5.65;;;2.88;;
41799;SDS011;27468;47.460;19.034;2023-05-16T09:31:24;3.63;;;2.58;;
41799;SDS011;27468;47.460;19.034;2023-05-16T09:33:51;4.40;;;2.92;;
41799;SDS011;27468;47.460;19.034;2023-05-16T09:36:17;5.82;;;2.70;;
41799;SDS011;27468;47.460;19.034;2023-05-16T09:38:43;3.97;;;2.65;;
41799;SDS011;27468;47.460;19.034;2023-05-16T09:41:09;4.47;;;2.53;;
41799;SDS011;27468;47.460;19.034;2023-05-16T09:43:37;4.30;;;2.88;;
41799;SDS011;27468;47.460;19.034;2023-05-16T09:46:04;4.30;;;2.63;;
41799;SDS011;27468;47.460;19.034;2023-05-16T09:48:31;4.03;;;2.30;;
41799;SDS011;27468;47.460;19.034;2023-05-16T09:50:57;3.30;;;2.05;;
41799;SDS011;27468;47.460;19.034;2023-05-16T09:53:28;3.83;;;1.95;;
41799;SDS011;27468;47.460;19.034;2023-05-16T09:56:03;4.90;;;2.30;;
41799;SDS011;27468;47.460;19.034;2023-05-16T09:58:40;3.33;;;2.05;;
41799;SDS011;27468;47.460;19.034;2023-05-16T10:01:07;4.53;;;1.75;;
41799;SDS011;27468;47.460;19.034;2023-05-16T10:03:34;3.00;;;1.55;;
41799;SDS011;27468;47.460;19.034;2023-05-16T10:06:02;4.15;;;2.10;;
41799;SDS011;27468;47.460;19.034;2023-05-16T10:08:30;3.22;;;2.10;;
41799;SDS011;27468;47.460;19.034;2023-05-16T10:10:56;4.82;;;1.83;;
41799;SDS011;27468;47.460;19.034;2023-05-16T10:13:23;4.15;;;2.03;;
41799;SDS011;27468;47.460;19.034;2023-05-16T10:15:54;3.17;;;1.95;;
41799;SDS011;27468;47.460;19.034;2023-05-16T10:18:22;4.50;;;2.35;;
41799;SDS011;27468;47.460;19.034;2023-05-16T10:20:52;4.25;;;2.40;;
41799;SDS011;27468;47.460;19.034;2023-05-16T10:23:19;4.95;;;3.03;;
41799;SDS011;27468;47.460;19.034;2023-05-16T10:25:46;4.85;;;2.38;;
41799;SDS011;27468;47.460;19.034;2023-05-16T10:28:13;5.13;;;2.28;;
41799;SDS011;27468;47.460;19.034;2023-05-16T10:30:41;5.65;;;3.08;;
41799;SDS011;27468;47.460;19.034;2023-05-16T10:33:09;6.20;;;3.17;;
41799;SDS011;27468;47.460;19.034;2023-05-16T10:35:37;6.07;;;2.60;;
41799;SDS011;27468;47.460;19.034;2023-05-16T10:38:03;4.78;;;2.90;;
41799;SDS011;27468;47.460;19.034;2023-05-16T10:40:30;4.88;;;2.65;;
41799;SDS011;27468;47.460;19.034;2023-05-16T10:42:59;4.80;;;2.83;;
41799;SDS011;27468;47.460;19.034;2023-05-16T10:45:26;6.53;;;3.30;;
41799;SDS011;27468;47.460;19.034;2023-05-16T10:47:59;5.35;;;2.67;;
41799;SDS011;27468;47.460;19.034;2023-05-16T10:53:20;5.63;;;2.88;;
41799;SDS011;27468;47.460;19.034;2023-05-16T11:06:29;5.03;;;3.25;;
41799;SDS011;27468;47.460;19.034;2023-05-16T11:14:28;5.47;;;2.83;;
41799;SDS011;27468;47.460;19.034;2023-05-16T11:17:08;4.55;;;2.80;;
41799;SDS011;27468;47.460;19.034;2023-05-16T11:19:47;5.22;;;2.78;;
41799;SDS011;27468;47.460;19.034;2023-05-16T11:22:29;4.00;;;2.63;;
41799;SDS011;27468;47.460;19.034;2023-05-16T11:27:31;5.18;;;2.70;;
41799;SDS011;27468;47.460;19.034;2023-05-16T11:29:59;4.38;;;2.67;;
41799;SDS011;27468;47.460;19.034;2023-05-16T11:32:36;5.15;;;2.85;;
41799;SDS011;27468;47.460;19.034;2023-05-16T11:35:03;3.63;;;2.58;;
41799;SDS011;27468;47.460;19.034;2023-05-16T11:37:31;4.40;;;2.58;;
41799;SDS011;27468;47.460;19.034;2023-05-16T11:40:00;4.00;;;2.30;;
41799;SDS011;27468;47.460;19.034;2023-05-16T11:42:33;3.33;;;2.50;;
41799;SDS011;27468;47.460;19.034;2023-05-16T11:45:08;4.70;;;2.53;;
41799;SDS011;27468;47.460;19.034;2023-05-16T11:47:49;3.95;;;2.40;;
41799;SDS011;27468;47.460;19.034;2023-05-16T11:52:46;3.40;;;2.33;;
41799;SDS011;27468;47.460;19.034;2023-05-16T11:55:13;4.47;;;2.95;;
41799;SDS011;27468;47.460;19.034;2023-05-16T11:57:42;5.10;;;2.75;;
41799;SDS011;27468;47.460;19.034;2023-05-16T12:00:13;4.82;;;2.75;;
41799;SDS011;27468;47.460;19.034;2023-05-16T12:02:41;5.38;;;2.83;;
41799;SDS011;27468;47.460;19.034;2023-05-16T12:05:08;4.65;;;2.90;;
41799;SDS011;27468;47.460;19.034;2023-05-16T12:07:35;4.65;;;2.70;;
41799;SDS011;27468;47.460;19.034;2023-05-16T12:10:13;4.65;;;3.08;;
41799;SDS011;27468;47.460;19.034;2023-05-16T12:12:40;4.97;;;2.90;;
41799;SDS011;27468;47.460;19.034;2023-05-16T12:15:10;3.80;;;2.45;;
41799;SDS011;27468;47.460;19.034;2023-05-16T12:17:37;5.43;;;2.55;;
41799;SDS011;27468;47.460;19.034;2023-05-16T12:20:04;4.55;;;2.95;;
41799;SDS011;27468;47.460;19.034;2023-05-16T12:22:32;5.13;;;2.72;;
41799;SDS011;27468;47.460;19.034;2023-05-16T12:24:58;5.10;;;3.33;;
41799;SDS011;27468;47.460;19.034;2023-05-16T12:27:24;3.63;;;2.50;;
41799;SDS011;27468;47.460;19.034;2023-05-16T12:29:51;4.50;;;2.53;;
41799;SDS011;27468;47.460;19.034;2023-05-16T12:32:17;4.57;;;2.83;;
41799;SDS011;27468;47.460;19.034;2023-05-16T12:34:50;3.22;;;2.10;;
41799;SDS011;27468;47.460;19.034;2023-05-16T12:37:16;5.72;;;3.03;;
41799;SDS011;27468;47.460;19.034;2023-05-16T12:39:42;4.45;;;2.47;;
41799;SDS011;27468;47.460;19.034;2023-05-16T12:42:11;4.50;;;2.15;;
41799;SDS011;27468;47.460;19.034;2023-05-16T12:44:37;4.43;;;2.30;;
41799;SDS011;27468;47.460;19.034;2023-05-16T12:47:03;3.92;;;2.40;;
41799;SDS011;27468;47.460;19.034;2023-05-16T12:49:35;3.72;;;2.15;;
41799;SDS011;27468;47.460;19.034;2023-05-16T12:52:01;4.10;;;2.30;;
41799;SDS011;27468;47.460;19.034;2023-05-16T12:54:29;3.85;;;2.47;;
41799;SDS011;27468;47.460;19.034;2023-05-16T12:56:55;4.35;;;2.88;;
41799;SDS011;27468;47.460;19.034;2023-05-16T12:59:20;3.58;;;2.58;;
41799;SDS011;27468;47.460;19.034;2023-05-16T13:01:46;3.60;;;2.63;;
41799;SDS011;27468;47.460;19.034;2023-05-16T13:04:11;5.90;;;2.65;;
41799;SDS011;27468;47.460;19.034;2023-05-16T13:06:42;4.05;;;2.45;;
41799;SDS011;27468;47.460;19.034;2023-05-16T13:09:07;3.40;;;2.40;;
41799;SDS011;27468;47.460;19.034;2023-05-16T13:11:34;4.18;;;2.10;;
41799;SDS011;27468;47.460;19.034;2023-05-16T13:14:00;3.83;;;2.13;;
41799;SDS011;27468;47.460;19.034;2023-05-16T13:16:25;3.67;;;2.53;;
41799;SDS011;27468;47.460;19.034;2023-05-16T13:18:50;5.32;;;2.90;;
41799;SDS011;27468;47.460;19.034;2023-05-16T13:21:16;5.20;;;2.45;;
41799;SDS011;27468;47.460;19.034;2023-05-16T13:23:41;5.30;;;3.28;;
41799;SDS011;27468;47.460;19.034;2023-05-16T13:26:07;5.00;;;2.38;;
41799;SDS011;27468;47.460;19.034;2023-05-16T13:28:33;4.03;;;2.53;;
41799;SDS011;27468;47.460;19.034;2023-05-16T13:30:59;3.63;;;2.55;;
41799;SDS011;27468;47.460;19.034;2023-05-16T13:33:24;4.70;;;2.40;;
41799;SDS011;27468;47.460;19.034;2023-05-16T13:35:50;6.65;;;3.40;;
41799;SDS011;27468;47.460;19.034;2023-05-16T13:38:15;4.82;;;2.80;;
41799;SDS011;27468;47.460;19.034;2023-05-16T13:40:41;4.80;;;2.95;;
41799;SDS011;27468;47.460;19.034;2023-05-16T13:43:06;4.65;;;2.65;;
41799;SDS011;27468;47.460;19.034;2023-05-16T13:45:32;4.68;;;2.95;;
41799;SDS011;27468;47.460;19.034;2023-05-16T13:47:58;3.80;;;3.05;;
41799;SDS011;27468;47.460;19.034;2023-05-16T13:50:24;4.72;;;2.97;;
41799;SDS011;27468;47.460;19.034;2023-05-16T13:52:49;4.35;;;2.58;;
41799;SDS011;27468;47.460;19.034;2023-05-16T13:55:16;4.78;;;2.75;;
41799;SDS011;27468;47.460;19.034;2023-05-16T13:57:42;4.50;;;2.70;;
41799;SDS011;27468;47.460;19.034;2023-05-16T14:00:08;4.63;;;2.45;;
41799;SDS011;27468;47.460;19.034;2023-05-16T14:02:37;3.30;;;2.55;;
41799;SDS011;27468;47.460;19.034;2023-05-16T14:05:06;3.45;;;2.60;;
41799;SDS011;27468;47.460;19.034;2023-05-16T14:07:32;4.10;;;2.50;;
41799;SDS011;27468;47.460;19.034;2023-05-16T14:09:58;3.08;;;2.40;;
41799;SDS011;27468;47.460;19.034;2023-05-16T14:12:23;3.42;;;2.47;;
41799;SDS011;27468;47.460;19.034;2023-05-16T14:14:48;4.40;;;2.35;;
41799;SDS011;27468;47.460;19.034;2023-05-16T14:17:14;4.55;;;3.22;;
41799;SDS011;27468;47.460;19.034;2023-05-16T14:19:39;5.97;;;2.55;;
41799;SDS011;27468;47.460;19.034;2023-05-16T14:22:05;4.55;;;2.35;;
41799;SDS011;27468;47.460;19.034;2023-05-16T14:24:30;3.95;;;2.40;;
41799;SDS011;27468;47.460;19.034;2023-05-16T14:26:56;4.40;;;2.80;;
41799;SDS011;27468;47.460;19.034;2023-05-16T14:29:21;3.60;;;2.25;;
41799;SDS011;27468;47.460;19.034;2023-05-16T14:31:46;6.72;;;2.67;;
41799;SDS011;27468;47.460;19.034;2023-05-16T14:34:12;3.28;;;2.20;;
41799;SDS011;27468;47.460;19.034;2023-05-16T14:36:37;4.03;;;2.65;;
41799;SDS011;27468;47.460;19.034;2023-05-16T14:39:03;4.93;;;3.53;;
41799;SDS011;27468;47.460;19.034;2023-05-16T14:41:28;5.10;;;2.58;;
41799;SDS011;27468;47.460;19.034;2023-05-16T14:43:54;4.15;;;2.67;;
41799;SDS011;27468;47.460;19.034;2023-05-16T14:46:20;3.80;;;2.50;;
41799;SDS011;27468;47.460;19.034;2023-05-16T14:48:45;3.50;;;2.53;;
41799;SDS011;27468;47.460;19.034;2023-05-16T14:51:10;8.68;;;4.05;;
41799;SDS011;27468;47.460;19.034;2023-05-16T14:53:36;5.45;;;2.67;;
41799;SDS011;27468;47.460;19.034;2023-05-16T14:56:01;5.97;;;2.85;;
41799;SDS011;27468;47.460;19.034;2023-05-16T14:58:28;5.78;;;2.78;;
41799;SDS011;27468;47.460;19.034;2023-05-16T15:00:53;4.72;;;3.03;;
41799;SDS011;27468;47.460;19.034;2023-05-16T15:03:19;5.40;;;2.70;;
41799;SDS011;27468;47.460;19.034;2023-05-16T15:05:44;6.38;;;2.97;;
41799;SDS011;27468;47.460;19.034;2023-05-16T15:08:10;5.25;;;3.38;;